sensor_id;sensor_type;location;lat;lon;timestamp;pressure;altitude;pressure_sealevel;temperature;humidity
21273;BME280;36726;52.328;10.552;2023-04-27T00:02:10;100892.38;;;7.02;74.23
21273;BME280;36726;52.328;10.552;2023-04-27T00:04:37;100894.00;;;6.98;74.39
21273;BME280;36726;52.328;10.552;2023-04-27T00:07:04;100895.72;;;6.98;74.55
21273;BME280;36726;52.328;10.552;2023-04-27T00:09:30;100892.16;;;6.96;74.55
21273;BME280;36726;52.328;10.552;2023-04-27T00:11:57;100895.63;;;6.95;74.99
21273;BME280;36726;52.328;10.552;2023-04-27T00:14:24;100888.56;;;6.94;74.96
21273;BME280;36726;52.328;10.552;2023-04-27T00:16:54;100891.16;;;6.92;75.30
21273;BME280;36726;52.328;10.552;2023-04-27T00:19:21;100887.63;;;6.92;75.27
21273;BME280;36726;52.328;10.552;2023-04-27T00:21:48;100892.03;;;6.91;75.65
21273;BME280;36726;52.328;10.552;2023-04-27T00:24:14;100889.41;;;6.91;75.93
21273;BME280;36726;52.328;10.552;2023-04-27T00:26:41;100892.84;;;6.90;75.93
21273;BME280;36726;52.328;10.552;2023-04-27T00:29:07;100886.66;;;6.88;75.58
21273;BME280;36726;52.328;10.552;2023-04-27T00:31:34;100882.28;;;6.89;75.95
21273;BME280;36726;52.328;10.552;2023-04-27T00:34:01;100888.38;;;6.88;76.14
21273;BME280;36726;52.328;10.552;2023-04-27T00:36:27;100884.88;;;6.87;75.99
21273;BME280;36726;52.328;10.552;2023-04-27T00:38:54;100877.81;;;6.86;76.52
21273;BME280;36726;52.328;10.552;2023-04-27T00:41:21;100883.06;;;6.86;76.65
21273;BME280;36726;52.328;10.552;2023-04-27T00:43:48;100887.38;;;6.84;76.72
21273;BME280;36726;52.328;10.552;2023-04-27T00:46:15;100887.34;;;6.83;76.72
21273;BME280;36726;52.328;10.552;2023-04-27T00:48:43;100882.03;;;6.81;76.67
21273;BME280;36726;52.328;10.552;2023-04-27T00:51:10;100891.66;;;6.81;76.54
21273;BME280;36726;52.328;10.552;2023-04-27T00:53:36;100888.06;;;6.79;76.80
21273;BME280;36726;52.328;10.552;2023-04-27T00:56:04;100894.13;;;6.76;77.06
21273;BME280;36726;52.328;10.552;2023-04-27T00:58:32;100884.41;;;6.74;76.89
21273;BME280;36726;52.328;10.552;2023-04-27T01:00:59;100886.97;;;6.72;76.50
21273;BME280;36726;52.328;10.552;2023-04-27T01:03:26;100893.03;;;6.70;76.98
21273;BME280;36726;52.328;10.552;2023-04-27T01:05:53;100897.41;;;6.69;76.87
21273;BME280;36726;52.328;10.552;2023-04-27T01:08:22;100897.41;;;6.69;77.28
21273;BME280;36726;52.328;10.552;2023-04-27T01:10:48;100894.66;;;6.66;77.43
21273;BME280;36726;52.328;10.552;2023-04-27T01:13:15;100886.78;;;6.66;77.31
21273;BME280;36726;52.328;10.552;2023-04-27T01:15:41;100895.50;;;6.65;77.21
21273;BME280;36726;52.328;10.552;2023-04-27T01:18:08;100891.94;;;6.63;77.25
21273;BME280;36726;52.328;10.552;2023-04-27T01:20:35;100893.63;;;6.61;77.86
21273;BME280;36726;52.328;10.552;2023-04-27T01:23:01;100898.00;;;6.61;77.97
21273;BME280;36726;52.328;10.552;2023-04-27T01:25:28;100891.84;;;6.60;77.93
21273;BME280;36726;52.328;10.552;2023-04-27T01:27:55;100900.56;;;6.59;77.77
21273;BME280;36726;52.328;10.552;2023-04-27T01:30:21;100896.97;;;6.57;78.04
21273;BME280;36726;52.328;10.552;2023-04-27T01:32:48;100903.09;;;6.56;78.14
21273;BME280;36726;52.328;10.552;2023-04-27T01:35:17;100902.19;;;6.56;77.91
21273;BME280;36726;52.328;10.552;2023-04-27T01:37:44;100907.41;;;6.54;78.17
21273;BME280;36726;52.328;10.552;2023-04-27T01:40:11;100917.00;;;6.54;78.21
21273;BME280;36726;52.328;10.552;2023-04-27T01:42:38;100914.38;;;6.54;78.33
21273;BME280;36726;52.328;10.552;2023-04-27T01:45:07;100912.56;;;6.51;78.05
21273;BME280;36726;52.328;10.552;2023-04-27T01:47:34;100914.28;;;6.51;77.89
21273;BME280;36726;52.328;10.552;2023-04-27T01:50:01;100926.53;;;6.50;77.87
21273;BME280;36726;52.328;10.552;2023-04-27T01:52:27;100922.91;;;6.47;78.06
21273;BME280;36726;52.328;10.552;2023-04-27T01:54:54;100923.75;;;6.46;78.34
21273;BME280;36726;52.328;10.552;2023-04-27T01:57:21;100929.78;;;6.43;78.93
21273;BME280;36726;52.328;10.552;2023-04-27T01:59:48;100928.81;;;6.41;78.18
21273;BME280;36726;52.328;10.552;2023-04-27T02:02:14;100933.13;;;6.39;78.99
21273;BME280;36726;52.328;10.552;2023-04-27T02:04:41;100941.88;;;6.38;78.78
21273;BME280;36726;52.328;10.552;2023-04-27T02:07:09;100940.97;;;6.38;79.19
21273;BME280;36726;52.328;10.552;2023-04-27T02:09:35;100936.50;;;6.35;80.18
21273;BME280;36726;52.328;10.552;2023-04-27T02:12:02;100941.63;;;6.32;80.32
21273;BME280;36726;52.328;10.552;2023-04-27T02:14:29;100943.41;;;6.32;80.24
21273;BME280;36726;52.328;10.552;2023-04-27T02:16:55;100947.69;;;6.29;81.53
21273;BME280;36726;52.328;10.552;2023-04-27T02:19:22;100947.66;;;6.28;81.49
21273;BME280;36726;52.328;10.552;2023-04-27T02:21:49;100967.81;;;6.29;81.91
21273;BME280;36726;52.328;10.552;2023-04-27T02:24:16;100965.13;;;6.27;82.23
21273;BME280;36726;52.328;10.552;2023-04-27T02:26:43;100968.47;;;6.23;82.05
21273;BME280;36726;52.328;10.552;2023-04-27T02:29:10;100968.44;;;6.22;82.25
21273;BME280;36726;52.328;10.552;2023-04-27T02:31:37;100970.06;;;6.18;82.71
21273;BME280;36726;52.328;10.552;2023-04-27T02:34:04;100977.88;;;6.17;82.16
21273;BME280;36726;52.328;10.552;2023-04-27T02:36:30;100973.41;;;6.14;83.02
21273;BME280;36726;52.328;10.552;2023-04-27T02:38:57;100974.19;;;6.12;82.89
21273;BME280;36726;52.328;10.552;2023-04-27T02:41:24;100973.16;;;6.08;83.28
21273;BME280;36726;52.328;10.552;2023-04-27T02:43:53;100984.47;;;6.06;82.77
21273;BME280;36726;52.328;10.552;2023-04-27T02:46:20;100973.88;;;6.03;83.20
21273;BME280;36726;52.328;10.552;2023-04-27T02:48:46;100980.78;;;6.01;83.33
21273;BME280;36726;52.328;10.552;2023-04-27T02:51:13;100977.97;;;5.96;83.28
21273;BME280;36726;52.328;10.552;2023-04-27T02:53:39;100982.25;;;5.94;84.08
21273;BME280;36726;52.328;10.552;2023-04-27T02:56:06;100981.25;;;5.91;83.61
21273;BME280;36726;52.328;10.552;2023-04-27T02:58:33;100975.06;;;5.89;84.16
21273;BME280;36726;52.328;10.552;2023-04-27T03:01:00;100975.00;;;5.87;84.13
21273;BME280;36726;52.328;10.552;2023-04-27T03:03:26;100967.94;;;5.85;83.90
21273;BME280;36726;52.328;10.552;2023-04-27T03:05:53;100969.59;;;5.83;84.34
21273;BME280;36726;52.328;10.552;2023-04-27T03:08:20;100983.50;;;5.82;84.95
21273;BME280;36726;52.328;10.552;2023-04-27T03:10:46;100977.25;;;5.78;84.23
21273;BME280;36726;52.328;10.552;2023-04-27T03:13:13;100978.03;;;5.76;84.73
21273;BME280;36726;52.328;10.552;2023-04-27T03:15:42;100979.56;;;5.71;84.40
21273;BME280;36726;52.328;10.552;2023-04-27T03:18:08;100982.03;;;5.66;84.68
21273;BME280;36726;52.328;10.552;2023-04-27T03:20:35;100978.41;;;5.63;84.49
21273;BME280;36726;52.328;10.552;2023-04-27T03:23:02;100979.94;;;5.58;84.83
21273;BME280;36726;52.328;10.552;2023-04-27T03:25:28;100979.81;;;5.55;85.78
21273;BME280;36726;52.328;10.552;2023-04-27T03:27:55;100981.31;;;5.48;86.01
21273;BME280;36726;52.328;10.552;2023-04-27T03:30:22;100981.06;;;5.42;85.66
21273;BME280;36726;52.328;10.552;2023-04-27T03:32:48;100989.53;;;5.35;86.42
21273;BME280;36726;52.328;10.552;2023-04-27T03:35:15;100988.38;;;5.28;86.59
21273;BME280;36726;52.328;10.552;2023-04-27T03:37:44;100984.56;;;5.20;86.95
21273;BME280;36726;52.328;10.552;2023-04-27T03:40:12;100991.22;;;5.12;86.34
21273;BME280;36726;52.328;10.552;2023-04-27T03:42:39;100999.69;;;5.05;86.94
21273;BME280;36726;52.328;10.552;2023-04-27T03:45:07;101005.47;;;4.98;87.26
21273;BME280;36726;52.328;10.552;2023-04-27T03:47:33;100999.16;;;4.93;87.86
21273;BME280;36726;52.328;10.552;2023-04-27T03:50:00;101009.44;;;4.89;88.12
21273;BME280;36726;52.328;10.552;2023-04-27T03:52:27;101006.63;;;4.84;87.51
21273;BME280;36726;52.328;10.552;2023-04-27T03:54:53;101013.50;;;4.82;87.94
21273;BME280;36726;52.328;10.552;2023-04-27T03:57:20;101006.38;;;4.78;88.00
21273;BME280;36726;52.328;10.552;2023-04-27T03:59:46;101008.84;;;4.75;88.38
21273;BME280;36726;52.328;10.552;2023-04-27T04:02:13;101010.50;;;4.73;89.07
21273;BME280;36726;52.328;10.552;2023-04-27T04:04:40;101012.03;;;4.68;89.00
21273;BME280;36726;52.328;10.552;2023-04-27T04:07:07;101006.69;;;4.65;88.35
21273;BME280;36726;52.328;10.552;2023-04-27T04:09:34;101007.38;;;4.61;89.20
21273;BME280;36726;52.328;10.552;2023-04-27T04:12:01;101002.81;;;4.57;89.34
21273;BME280;36726;52.328;10.552;2023-04-27T04:14:29;101004.47;;;4.55;89.08
21273;BME280;36726;52.328;10.552;2023-04-27T04:16:56;101003.44;;;4.52;89.12
21273;BME280;36726;52.328;10.552;2023-04-27T04:19:22;101003.31;;;4.49;89.40
21273;BME280;36726;52.328;10.552;2023-04-27T04:21:49;101004.06;;;4.46;89.61
21273;BME280;36726;52.328;10.552;2023-04-27T04:24:17;101011.81;;;4.43;89.54
21273;BME280;36726;52.328;10.552;2023-04-27T04:26:44;101018.63;;;4.40;89.86
21273;BME280;36726;52.328;10.552;2023-04-27T04:29:10;101018.41;;;4.35;90.14
21273;BME280;36726;52.328;10.552;2023-04-27T04:31:37;101022.56;;;4.30;90.26
21273;BME280;36726;52.328;10.552;2023-04-27T04:34:04;101023.25;;;4.26;91.20
21273;BME280;36726;52.328;10.552;2023-04-27T04:36:30;101025.84;;;4.26;90.80
21273;BME280;36726;52.328;10.552;2023-04-27T04:38:57;101025.72;;;4.23;90.89
21273;BME280;36726;52.328;10.552;2023-04-27T04:41:25;101030.84;;;4.20;91.75
21273;BME280;36726;52.328;10.552;2023-04-27T04:43:51;101027.19;;;4.16;91.72
21273;BME280;36726;52.328;10.552;2023-04-27T04:46:18;101026.22;;;4.14;92.15
21273;BME280;36726;52.328;10.552;2023-04-27T04:48:45;101038.41;;;4.14;92.00
21273;BME280;36726;52.328;10.552;2023-04-27T04:51:12;101039.25;;;4.13;92.26
21273;BME280;36726;52.328;10.552;2023-04-27T04:53:39;101034.81;;;4.12;92.42
21273;BME280;36726;52.328;10.552;2023-04-27T04:56:09;101040.13;;;4.13;92.53
21273;BME280;36726;52.328;10.552;2023-04-27T04:58:36;101040.22;;;4.15;92.55
21273;BME280;36726;52.328;10.552;2023-04-27T05:01:04;101040.28;;;4.16;93.37
21273;BME280;36726;52.328;10.552;2023-04-27T05:03:31;101038.53;;;4.17;93.12
21273;BME280;36726;52.328;10.552;2023-04-27T05:05:58;101041.25;;;4.18;92.97
21273;BME280;36726;52.328;10.552;2023-04-27T05:08:24;101037.84;;;4.21;93.70
21273;BME280;36726;52.328;10.552;2023-04-27T05:10:51;101036.19;;;4.23;93.45
21273;BME280;36726;52.328;10.552;2023-04-27T05:13:19;101036.31;;;4.26;93.84
21273;BME280;36726;52.328;10.552;2023-04-27T05:15:46;101035.66;;;4.30;93.75
21273;BME280;36726;52.328;10.552;2023-04-27T05:18:13;101035.88;;;4.35;93.67
21273;BME280;36726;52.328;10.552;2023-04-27T05:20:39;101040.50;;;4.40;94.25
21273;BME280;36726;52.328;10.552;2023-04-27T05:23:06;101046.94;;;4.48;94.93
21273;BME280;36726;52.328;10.552;2023-04-27T05:25:34;101047.22;;;4.54;95.18
21273;BME280;36726;52.328;10.552;2023-04-27T05:28:07;101048.31;;;4.59;94.84
21273;BME280;36726;52.328;10.552;2023-04-27T05:30:34;101058.13;;;4.63;94.26
21273;BME280;36726;52.328;10.552;2023-04-27T05:33:04;101057.56;;;4.70;93.91
21273;BME280;36726;52.328;10.552;2023-04-27T05:35:31;101059.47;;;4.74;94.20
21273;BME280;36726;52.328;10.552;2023-04-27T05:37:58;101057.03;;;4.79;93.71
21273;BME280;36726;52.328;10.552;2023-04-27T05:40:25;101057.25;;;4.83;93.84
21273;BME280;36726;52.328;10.552;2023-04-27T05:42:51;101061.94;;;4.90;93.17
21273;BME280;36726;52.328;10.552;2023-04-27T05:45:19;101068.25;;;4.95;92.04
21273;BME280;36726;52.328;10.552;2023-04-27T05:47:45;101062.44;;;5.02;92.06
21273;BME280;36726;52.328;10.552;2023-04-27T05:50:12;101064.38;;;5.06;92.06
21273;BME280;36726;52.328;10.552;2023-04-27T05:52:39;101063.75;;;5.12;91.38
21273;BME280;36726;52.328;10.552;2023-04-27T05:55:06;101074.50;;;5.18;91.07
21273;BME280;36726;52.328;10.552;2023-04-27T05:57:33;101077.34;;;5.24;90.91
21273;BME280;36726;52.328;10.552;2023-04-27T06:00:00;101083.78;;;5.31;89.92
21273;BME280;36726;52.328;10.552;2023-04-27T06:02:37;101082.16;;;5.34;89.05
21273;BME280;36726;52.328;10.552;2023-04-27T06:05:05;101077.16;;;5.40;88.56
21273;BME280;36726;52.328;10.552;2023-04-27T06:07:32;101081.66;;;5.43;88.21
21273;BME280;36726;52.328;10.552;2023-04-27T06:09:58;101084.44;;;5.47;89.21
21273;BME280;36726;52.328;10.552;2023-04-27T06:12:25;101092.53;;;5.52;88.35
21273;BME280;36726;52.328;10.552;2023-04-27T06:14:52;101088.34;;;5.57;87.12
21273;BME280;36726;52.328;10.552;2023-04-27T06:17:20;101089.41;;;5.62;87.93
21273;BME280;36726;52.328;10.552;2023-04-27T06:19:47;101081.75;;;5.66;86.58
21273;BME280;36726;52.328;10.552;2023-04-27T06:22:13;101082.78;;;5.70;86.32
21273;BME280;36726;52.328;10.552;2023-04-27T06:24:40;101088.97;;;5.72;85.48
21273;BME280;36726;52.328;10.552;2023-04-27T06:27:07;101094.34;;;5.75;85.37
21273;BME280;36726;52.328;10.552;2023-04-27T06:29:34;101097.06;;;5.78;86.18
21273;BME280;36726;52.328;10.552;2023-04-27T06:32:00;101093.75;;;5.82;85.62
21273;BME280;36726;52.328;10.552;2023-04-27T06:34:27;101093.94;;;5.85;84.75
21273;BME280;36726;52.328;10.552;2023-04-27T06:36:54;101096.66;;;5.88;84.16
21273;BME280;36726;52.328;10.552;2023-04-27T06:39:20;101096.81;;;5.92;83.59
21273;BME280;36726;52.328;10.552;2023-04-27T06:41:47;101098.75;;;5.96;82.84
21273;BME280;36726;52.328;10.552;2023-04-27T06:44:17;101098.09;;;6.02;81.79
21273;BME280;36726;52.328;10.552;2023-04-27T06:46:43;101099.22;;;6.08;81.67
21273;BME280;36726;52.328;10.552;2023-04-27T06:49:10;101104.66;;;6.13;82.23
21273;BME280;36726;52.328;10.552;2023-04-27T06:51:37;101098.69;;;6.17;81.11
21273;BME280;36726;52.328;10.552;2023-04-27T06:54:04;101105.78;;;6.19;81.31
21273;BME280;36726;52.328;10.552;2023-04-27T06:56:30;101115.69;;;6.26;81.07
21273;BME280;36726;52.328;10.552;2023-04-27T06:58:57;101105.47;;;6.34;80.88
21273;BME280;36726;52.328;10.552;2023-04-27T07:01:23;101119.81;;;6.42;78.50
21273;BME280;36726;52.328;10.552;2023-04-27T07:03:50;101107.03;;;6.51;78.48
21273;BME280;36726;52.328;10.552;2023-04-27T07:06:17;101107.38;;;6.60;77.64
21273;BME280;36726;52.328;10.552;2023-04-27T07:08:44;101107.56;;;6.66;76.92
21273;BME280;36726;52.328;10.552;2023-04-27T07:11:11;101109.63;;;6.73;74.72
21273;BME280;36726;52.328;10.552;2023-04-27T07:13:37;101113.44;;;6.83;75.50
21273;BME280;36726;52.328;10.552;2023-04-27T07:16:04;101117.63;;;7.01;75.17
21273;BME280;36726;52.328;10.552;2023-04-27T07:18:31;101123.56;;;7.19;73.41
21273;BME280;36726;52.328;10.552;2023-04-27T07:20:58;101115.34;;;7.35;72.88
21273;BME280;36726;52.328;10.552;2023-04-27T07:23:24;101108.78;;;7.50;72.79
21273;BME280;36726;52.328;10.552;2023-04-27T07:25:51;101107.41;;;7.61;71.73
21273;BME280;36726;52.328;10.552;2023-04-27T07:28:18;101111.81;;;7.87;70.86
21273;BME280;36726;52.328;10.552;2023-04-27T07:30:45;101112.47;;;8.08;70.36
21273;BME280;36726;52.328;10.552;2023-04-27T07:33:12;101112.88;;;8.21;68.78
21273;BME280;36726;52.328;10.552;2023-04-27T07:35:38;101109.78;;;8.33;66.43
21273;BME280;36726;52.328;10.552;2023-04-27T07:38:05;101115.06;;;8.33;67.57
21273;BME280;36726;52.328;10.552;2023-04-27T07:40:33;101111.47;;;8.31;65.89
21273;BME280;36726;52.328;10.552;2023-04-27T07:42:59;101117.59;;;8.30;66.18
21273;BME280;36726;52.328;10.552;2023-04-27T07:45:26;101124.94;;;8.40;65.61
21273;BME280;36726;52.328;10.552;2023-04-27T07:47:59;101114.03;;;8.58;66.40
21273;BME280;36726;52.328;10.552;2023-04-27T07:50:28;101116.06;;;8.66;64.67
21273;BME280;36726;52.328;10.552;2023-04-27T07:52:55;101120.97;;;8.84;63.67
21273;BME280;36726;52.328;10.552;2023-04-27T07:55:22;101126.94;;;9.08;65.43
21273;BME280;36726;52.328;10.552;2023-04-27T07:57:51;101119.38;;;9.21;64.37
21273;BME280;36726;52.328;10.552;2023-04-27T08:00:18;101123.06;;;9.28;61.69
21273;BME280;36726;52.328;10.552;2023-04-27T08:02:44;101123.19;;;9.32;61.09
21273;BME280;36726;52.328;10.552;2023-04-27T08:05:11;101121.63;;;9.40;60.89
21273;BME280;36726;52.328;10.552;2023-04-27T08:07:39;101125.88;;;9.34;60.50
21273;BME280;36726;52.328;10.552;2023-04-27T08:10:10;101119.31;;;9.18;60.20
21273;BME280;36726;52.328;10.552;2023-04-27T08:12:36;101127.91;;;9.11;59.94
21273;BME280;36726;52.328;10.552;2023-04-27T08:15:04;101127.72;;;9.05;60.69
21273;BME280;36726;52.328;10.552;2023-04-27T08:17:31;101126.00;;;9.06;60.04
21273;BME280;36726;52.328;10.552;2023-04-27T08:19:57;101126.03;;;9.07;57.97
21273;BME280;36726;52.328;10.552;2023-04-27T08:22:24;101122.78;;;9.17;59.02
21273;BME280;36726;52.328;10.552;2023-04-27T08:24:51;101118.94;;;9.37;58.59
21273;BME280;36726;52.328;10.552;2023-04-27T08:27:17;101126.28;;;9.49;58.76
21273;BME280;36726;52.328;10.552;2023-04-27T08:29:47;101118.88;;;9.69;58.33
21273;BME280;36726;52.328;10.552;2023-04-27T08:32:14;101111.94;;;9.74;58.53
21273;BME280;36726;52.328;10.552;2023-04-27T08:34:41;101108.38;;;9.72;57.81
21273;BME280;36726;52.328;10.552;2023-04-27T08:37:08;101110.91;;;9.67;57.96
21273;BME280;36726;52.328;10.552;2023-04-27T08:39:34;101113.41;;;9.63;56.42
21273;BME280;36726;52.328;10.552;2023-04-27T08:42:09;101109.06;;;9.65;55.91
21273;BME280;36726;52.328;10.552;2023-04-27T08:44:40;101117.38;;;9.80;54.74
21273;BME280;36726;52.328;10.552;2023-04-27T08:47:07;101102.03;;;10.01;53.33
21273;BME280;36726;52.328;10.552;2023-04-27T08:49:35;101101.94;;;10.33;53.87
21273;BME280;36726;52.328;10.552;2023-04-27T08:52:09;101099.88;;;10.59;53.06
21273;BME280;36726;52.328;10.552;2023-04-27T08:54:37;101094.88;;;10.74;53.66
21273;BME280;36726;52.328;10.552;2023-04-27T08:57:10;101091.44;;;10.78;52.31
21273;BME280;36726;52.328;10.552;2023-04-27T08:59:40;101094.88;;;10.74;51.20
21273;BME280;36726;52.328;10.552;2023-04-27T09:02:17;101097.25;;;10.61;52.46
21273;BME280;36726;52.328;10.552;2023-04-27T09:04:44;101095.00;;;10.38;50.03
21273;BME280;36726;52.328;10.552;2023-04-27T09:07:15;101099.84;;;10.19;49.36
21273;BME280;36726;52.328;10.552;2023-04-27T09:09:43;101099.56;;;10.08;51.03
21273;BME280;36726;52.328;10.552;2023-04-27T09:12:18;101098.75;;;10.09;51.47
21273;BME280;36726;52.328;10.552;2023-04-27T09:14:59;101104.50;;;10.29;50.95
21273;BME280;36726;52.328;10.552;2023-04-27T09:17:27;101094.44;;;10.53;51.53
21273;BME280;36726;52.328;10.552;2023-04-27T09:20:04;101097.53;;;10.74;52.04
21273;BME280;36726;52.328;10.552;2023-04-27T09:22:44;101091.81;;;10.96;50.82
21273;BME280;36726;52.328;10.552;2023-04-27T09:25:28;101092.94;;;11.09;50.34
21273;BME280;36726;52.328;10.552;2023-04-27T09:27:56;101102.81;;;11.17;49.50
21273;BME280;36726;52.328;10.552;2023-04-27T09:30:24;101097.66;;;11.25;50.31
21273;BME280;36726;52.328;10.552;2023-04-27T09:32:53;101098.72;;;11.34;50.03
21273;BME280;36726;52.328;10.552;2023-04-27T09:35:24;101089.03;;;11.36;50.44
21273;BME280;36726;52.328;10.552;2023-04-27T09:37:52;101096.06;;;11.34;50.60
21273;BME280;36726;52.328;10.552;2023-04-27T09:40:21;101096.06;;;11.34;50.38
21273;BME280;36726;52.328;10.552;2023-04-27T09:42:58;101091.47;;;11.24;49.98
21273;BME280;36726;52.328;10.552;2023-04-27T09:45:26;101093.81;;;11.09;47.91
21273;BME280;36726;52.328;10.552;2023-04-27T09:47:53;101089.19;;;10.98;49.66
21273;BME280;36726;52.328;10.552;2023-04-27T09:50:20;101100.53;;;10.92;49.47
21273;BME280;36726;52.328;10.552;2023-04-27T09:52:49;101093.47;;;10.91;49.37
21273;BME280;36726;52.328;10.552;2023-04-27T09:55:39;101084.00;;;11.04;48.62
21273;BME280;36726;52.328;10.552;2023-04-27T10:01:27;101083.25;;;11.59;48.29
21273;BME280;36726;52.328;10.552;2023-04-27T10:07:10;101095.44;;;12.00;45.23
21273;BME280;36726;52.328;10.552;2023-04-27T10:09:43;101090.44;;;12.19;44.82
21273;BME280;36726;52.328;10.552;2023-04-27T10:12:26;101084.41;;;12.31;45.61
21273;BME280;36726;52.328;10.552;2023-04-27T10:14:58;101086.19;;;12.30;44.69
21273;BME280;36726;52.328;10.552;2023-04-27T10:17:30;101093.22;;;12.28;44.91
21273;BME280;36726;52.328;10.552;2023-04-27T10:20:02;101082.56;;;12.24;45.02
21273;BME280;36726;52.328;10.552;2023-04-27T10:22:44;101075.16;;;12.03;45.75
21273;BME280;36726;52.328;10.552;2023-04-27T10:27:39;101079.69;;;11.58;46.65
21273;BME280;36726;52.328;10.552;2023-04-27T10:30:10;101083.16;;;11.54;46.60
21273;BME280;36726;52.328;10.552;2023-04-27T10:32:49;101089.34;;;11.55;46.26
21273;BME280;36726;52.328;10.552;2023-04-27T10:35:16;101078.75;;;11.55;46.74
21273;BME280;36726;52.328;10.552;2023-04-27T10:37:44;101078.88;;;11.61;45.38
21273;BME280;36726;52.328;10.552;2023-04-27T10:40:11;101083.53;;;11.74;45.13
21273;BME280;36726;52.328;10.552;2023-04-27T10:42:45;101074.13;;;11.94;44.28
21273;BME280;36726;52.328;10.552;2023-04-27T10:45:25;101081.50;;;12.13;44.18
21273;BME280;36726;52.328;10.552;2023-04-27T10:47:58;101075.53;;;12.29;43.50
21273;BME280;36726;52.328;10.552;2023-04-27T10:50:26;101079.25;;;12.41;43.44
21273;BME280;36726;52.328;10.552;2023-04-27T10:52:53;101086.53;;;12.56;41.37
21273;BME280;36726;52.328;10.552;2023-04-27T10:55:21;101075.25;;;12.74;42.27
21273;BME280;36726;52.328;10.552;2023-04-27T10:57:52;101074.47;;;12.84;43.12
21273;BME280;36726;52.328;10.552;2023-04-27T11:02:54;101072.81;;;12.95;42.62
21273;BME280;36726;52.328;10.552;2023-04-27T11:05:26;101075.66;;;13.07;41.37
21273;BME280;36726;52.328;10.552;2023-04-27T11:08:09;101082.00;;;13.21;42.10
21273;BME280;36726;52.328;10.552;2023-04-27T11:10:41;101073.25;;;13.31;42.51
21273;BME280;36726;52.328;10.552;2023-04-27T11:13:09;101076.97;;;13.51;41.27
21273;BME280;36726;52.328;10.552;2023-04-27T11:15:47;101069.16;;;13.68;42.67
21273;BME280;36726;52.328;10.552;2023-04-27T11:18:15;101067.47;;;13.79;40.68
21273;BME280;36726;52.328;10.552;2023-04-27T11:20:53;101076.38;;;13.81;38.92
21273;BME280;36726;52.328;10.552;2023-04-27T11:23:27;101078.19;;;13.88;40.27
21273;BME280;36726;52.328;10.552;2023-04-27T11:25:55;101073.78;;;13.94;39.65
21273;BME280;36726;52.328;10.552;2023-04-27T11:28:22;101072.88;;;13.88;37.51
21273;BME280;36726;52.328;10.552;2023-04-27T11:30:57;101076.38;;;13.87;38.96
21273;BME280;36726;52.328;10.552;2023-04-27T11:33:24;101079.19;;;14.03;38.78
21273;BME280;36726;52.328;10.552;2023-04-27T11:35:51;101069.53;;;14.19;40.00
21273;BME280;36726;52.328;10.552;2023-04-27T11:38:18;101080.19;;;14.25;39.17
21273;BME280;36726;52.328;10.552;2023-04-27T11:40:59;101080.28;;;14.32;40.30
21273;BME280;36726;52.328;10.552;2023-04-27T11:43:26;101073.16;;;14.30;38.96
21273;BME280;36726;52.328;10.552;2023-04-27T11:45:54;101074.03;;;14.26;38.83
21273;BME280;36726;52.328;10.552;2023-04-27T11:48:26;101066.09;;;14.32;38.17
21273;BME280;36726;52.328;10.552;2023-04-27T11:50:52;101067.88;;;14.36;38.88
21273;BME280;36726;52.328;10.552;2023-04-27T11:53:33;101066.13;;;14.41;40.30
21273;BME280;36726;52.328;10.552;2023-04-27T11:56:01;101069.69;;;14.40;39.25
21273;BME280;36726;52.328;10.552;2023-04-27T11:58:28;101067.94;;;14.43;38.99
21273;BME280;36726;52.328;10.552;2023-04-27T12:00:56;101060.81;;;14.41;39.03
21273;BME280;36726;52.328;10.552;2023-04-27T12:03:23;101069.69;;;14.40;39.31
21273;BME280;36726;52.328;10.552;2023-04-27T12:05:51;101067.94;;;14.48;39.12
21273;BME280;36726;52.328;10.552;2023-04-27T12:08:18;101060.91;;;14.56;39.29
21273;BME280;36726;52.328;10.552;2023-04-27T12:10:45;101067.13;;;14.57;38.41
21273;BME280;36726;52.328;10.552;2023-04-27T12:13:12;101068.84;;;14.51;38.53
21273;BME280;36726;52.328;10.552;2023-04-27T12:15:40;101066.19;;;14.50;39.41
21273;BME280;36726;52.328;10.552;2023-04-27T12:18:08;101064.41;;;14.49;38.80
21273;BME280;36726;52.328;10.552;2023-04-27T12:20:35;101068.84;;;14.50;38.79
21273;BME280;36726;52.328;10.552;2023-04-27T12:23:01;101067.06;;;14.50;38.36
21273;BME280;36726;52.328;10.552;2023-04-27T12:25:28;101057.34;;;14.57;39.10
21273;BME280;36726;52.328;10.552;2023-04-27T12:27:55;101059.13;;;14.57;39.43
21273;BME280;36726;52.328;10.552;2023-04-27T12:30:22;101066.19;;;14.47;37.94
21273;BME280;36726;52.328;10.552;2023-04-27T12:32:49;101059.91;;;14.33;39.12
21273;BME280;36726;52.328;10.552;2023-04-27T12:35:16;101061.53;;;14.16;39.33
21273;BME280;36726;52.328;10.552;2023-04-27T12:37:43;101058.81;;;14.07;38.87
21273;BME280;36726;52.328;10.552;2023-04-27T12:40:10;101058.81;;;14.07;39.12
21273;BME280;36726;52.328;10.552;2023-04-27T12:42:36;101055.34;;;14.17;39.77
21273;BME280;36726;52.328;10.552;2023-04-27T12:45:03;101048.34;;;14.31;39.53
21273;BME280;36726;52.328;10.552;2023-04-27T12:47:30;101049.31;;;14.42;38.54
21273;BME280;36726;52.328;10.552;2023-04-27T12:50:17;101056.47;;;14.61;38.58
21273;BME280;36726;52.328;10.552;2023-04-27T12:52:44;101059.19;;;14.79;38.23
21273;BME280;36726;52.328;10.552;2023-04-27T12:55:10;101055.69;;;14.92;38.09
21273;BME280;36726;52.328;10.552;2023-04-27T12:57:57;101045.06;;;15.04;37.89
21273;BME280;36726;52.328;10.552;2023-04-27T13:00:23;101043.31;;;15.15;37.46
21273;BME280;36726;52.328;10.552;2023-04-27T13:02:51;101049.56;;;15.26;36.56
21273;BME280;36726;52.328;10.552;2023-04-27T13:05:19;101048.69;;;15.33;36.22